CCH5 weather

Montreal / Longueuil (Centre Hospitalier Pierre-Boucher) Heliport
Montréal, Quebec, Canada

Public forecast

Using degrees Celsius for public forecast. Weather courtesy of forecast.io.

METAR (pilot weather report)

Closest report is Montréal / Saint-Hubert Airport, 2.2 nm (4.1 km) SE. Retrieved 2019/07/19 12:00 UTC (49 seconds ago):

CYHU 191200Z AUTO 19007KT 9SM FEW032 BKN080 23/21 A2974 RMK SLP072 DENSITY ALT 1200FT

TAF (pilot weather forecast)

Closest forecast is Montréal / Saint-Hubert Airport, 2.2 nm (4.1 km) SE. Retrieved 2019/07/19 12:42 UTC (0 seconds ago):

TAF CYHU 191138Z 1912/2012 18010KT P6SM SCT020 OVC050 TEMPO 1912/1914 P6SM -SHRA BKN020 OVC040 FM191400 25015G25KT P6SM BKN040 FM191800 26012G22KT P6SM SCT050 FM192200 25012G22KT P6SM SCT040 TEMPO 1922/2001 P6SM VCTS SCT040CB FM201000 25012KT P6SM BKN020 RMK FCST BASED ON AUTO OBS. NXT FCST BY 191800Z